Time;durP1;ratioP1;P1;durP2;ratioP2;P2;SDS_P1;SDS_P2;PMS_P1;PMS_P2;Temp;Humidity;BMP_temperature;BMP_pressure;BME280_temperature;BME280_humidity;BME280_pressure;Samples;Min_cycle;Max_cycle;Signal;HPM_P1;HPM_P2
2022/09/15 00:00:50;;;;;;;5.28;2.30;;;19.70;99.90;;;;;;5081250;28;20499;-85
2022/09/15 00:03:17;;;;;;;8.38;2.55;;;19.70;99.90;;;;;;5080490;28;20118;-84
2022/09/15 00:05:43;;;;;;;5.82;2.08;;;19.70;99.90;;;;;;5084783;28;20029;-83
2022/09/15 00:08:11;;;;;;;4.80;2.10;;;19.70;99.90;;;;;;5090730;28;20135;-83
2022/09/15 00:10:38;;;;;;;4.40;1.92;;;19.70;99.90;;;;;;5079320;28;20059;-84
2022/09/15 00:13:04;;;;;;;6.35;1.58;;;19.80;99.90;;;;;;5079768;28;20024;-82
2022/09/15 00:15:30;;;;;;;2.28;1.80;;;19.80;99.90;;;;;;5080562;28;20455;-82
2022/09/15 00:17:56;;;;;;;8.63;2.00;;;19.80;99.90;;;;;;5081306;28;20039;-82
2022/09/15 00:20:21;;;;;;;4.57;1.95;;;19.80;99.90;;;;;;5086048;28;20025;-82
2022/09/15 00:22:48;;;;;;;6.38;1.85;;;19.80;99.90;;;;;;5085639;28;20107;-82
2022/09/15 00:25:14;;;;;;;3.90;1.60;;;19.80;99.90;;;;;;5082814;28;20468;-84
2022/09/15 00:27:40;;;;;;;5.60;1.90;;;19.70;99.90;;;;;;5074932;28;20059;-83
2022/09/15 00:30:07;;;;;;;4.85;1.90;;;19.70;99.90;;;;;;5074874;28;20032;-83
2022/09/15 00:32:33;;;;;;;7.63;2.10;;;19.70;99.90;;;;;;5067127;28;20037;-83
2022/09/15 00:34:59;;;;;;;7.07;2.00;;;19.70;99.90;;;;;;5046143;28;20040;-83
2022/09/15 00:37:25;;;;;;;2.95;1.75;;;19.70;99.90;;;;;;5081129;28;20028;-83
2022/09/15 00:39:52;;;;;;;3.60;1.60;;;19.70;99.90;;;;;;5077659;28;20028;-83
2022/09/15 00:42:20;;;;;;;6.30;2.00;;;19.70;99.90;;;;;;5078076;28;20048;-85
2022/09/15 00:44:59;;;;;;;7.47;2.03;;;19.70;99.90;;;;;;5060484;28;20654;-84
2022/09/15 00:47:36;;;;;;;3.05;1.90;;;19.70;99.90;;;;;;5079681;28;20027;-85
2022/09/15 00:50:09;;;;;;;3.03;1.77;;;19.80;99.90;;;;;;5077801;28;20503;-83
2022/09/15 00:52:56;;;;;;;7.55;2.08;;;19.80;99.90;;;;;;5085440;28;20047;-82
2022/09/15 00:55:30;;;;;;;5.13;1.90;;;19.80;99.90;;;;;;5050516;28;20037;-83
2022/09/15 00:58:03;;;;;;;3.63;2.35;;;19.90;99.90;;;;;;5088775;28;20046;-80
2022/09/15 01:00:29;;;;;;;5.15;2.10;;;19.90;99.90;;;;;;5083164;28;20024;-82
2022/09/15 01:02:56;;;;;;;6.68;2.17;;;19.90;99.90;;;;;;5065180;28;20080;-83
2022/09/15 01:05:26;;;;;;;6.80;2.08;;;19.90;99.90;;;;;;5071875;28;20029;-82
2022/09/15 01:07:56;;;;;;;7.32;2.03;;;20.00;99.90;;;;;;5045639;28;20477;-84
2022/09/15 01:10:27;;;;;;;4.50;2.00;;;20.00;99.90;;;;;;5065665;28;20029;-83
2022/09/15 01:13:00;;;;;;;8.07;2.20;;;20.00;99.90;;;;;;5076265;28;20096;-82
2022/09/15 01:15:47;;;;;;;6.72;2.22;;;20.00;99.90;;;;;;5057386;28;20032;-83
2022/09/15 01:18:38;;;;;;;13.20;2.22;;;19.90;99.90;;;;;;5085786;28;20036;-83
2022/09/15 01:21:27;;;;;;;6.75;2.15;;;20.00;99.90;;;;;;5062640;28;20028;-83
2022/09/15 01:24:09;;;;;;;9.20;1.90;;;20.00;99.90;;;;;;5081112;28;20021;-83
2022/09/15 01:26:41;;;;;;;4.38;1.80;;;20.00;99.90;;;;;;5067239;28;20031;-83
2022/09/15 01:29:35;;;;;;;5.53;2.00;;;20.00;99.90;;;;;;5081273;28;20495;-82
2022/09/15 01:35:04;;;;;;;5.40;1.90;;;20.00;99.90;;;;;;5060455;28;20050;-83
2022/09/15 01:37:41;;;;;;;6.50;2.38;;;20.00;99.90;;;;;;5078465;28;20028;-83
2022/09/15 01:40:09;;;;;;;7.05;2.20;;;20.00;99.90;;;;;;5077604;28;20111;-82
2022/09/15 01:42:36;;;;;;;4.75;1.80;;;20.00;99.90;;;;;;5077872;28;20033;-83
2022/09/15 01:45:08;;;;;;;5.97;1.73;;;20.00;99.90;;;;;;5057994;28;20061;-82
2022/09/15 01:47:35;;;;;;;8.80;2.17;;;20.00;99.90;;;;;;5065287;28;20036;-83
2022/09/15 01:50:14;;;;;;;6.13;1.60;;;20.00;99.90;;;;;;5088673;28;20111;-82
2022/09/15 01:52:47;;;;;;;8.20;2.30;;;20.00;99.90;;;;;;5081995;28;20024;-83
2022/09/15 01:55:21;;;;;;;7.35;1.67;;;20.00;99.90;;;;;;5086856;28;20504;-82
2022/09/15 01:57:48;;;;;;;2.50;1.58;;;20.00;99.90;;;;;;5086495;28;20056;-83
2022/09/15 02:00:14;;;;;;;7.68;2.03;;;20.00;99.90;;;;;;5075985;28;20043;-82
2022/09/15 02:02:49;;;;;;;4.10;2.03;;;19.90;99.90;;;;;;5069041;28;20032;-81
2022/09/15 02:05:29;;;;;;;6.57;2.15;;;20.00;99.90;;;;;;5087875;28;20050;-82
2022/09/15 02:08:08;;;;;;;9.23;1.92;;;20.00;99.90;;;;;;5088125;28;20042;-82
2022/09/15 02:10:47;;;;;;;4.43;1.70;;;19.90;99.90;;;;;;5087149;28;20064;-83
2022/09/15 02:13:37;;;;;;;7.43;2.30;;;19.90;99.90;;;;;;5081681;28;20036;-83
2022/09/15 02:16:09;;;;;;;8.13;2.35;;;19.90;99.90;;;;;;5061580;28;20112;-84
2022/09/15 02:18:46;;;;;;;7.43;2.00;;;19.90;99.90;;;;;;5077535;28;20051;-83
2022/09/15 02:21:18;;;;;;;4.43;1.90;;;19.90;99.90;;;;;;5062582;28;20033;-82
2022/09/15 02:23:53;;;;;;;9.95;2.10;;;19.80;99.90;;;;;;5069539;28;20028;-83
2022/09/15 02:26:25;;;;;;;10.23;2.00;;;19.80;99.90;;;;;;5069519;28;20507;-82
2022/09/15 02:28:53;;;;;;;5.25;2.03;;;19.80;99.90;;;;;;5083967;28;20020;-83
2022/09/15 02:31:22;;;;;;;7.80;1.92;;;19.70;99.90;;;;;;5085298;28;20495;-81
2022/09/15 02:33:53;;;;;;;6.10;1.70;;;19.70;99.90;;;;;;5043304;28;20025;-83
2022/09/15 02:36:20;;;;;;;7.30;1.88;;;19.70;99.90;;;;;;5070657;28;20020;-83
2022/09/15 02:38:53;;;;;;;4.63;1.90;;;19.70;99.90;;;;;;5060826;28;20484;-82
2022/09/15 02:41:21;;;;;;;3.15;1.60;;;19.70;99.90;;;;;;5085954;28;20029;-80
2022/09/15 02:43:48;;;;;;;4.45;1.98;;;19.70;99.90;;;;;;5059826;28;20021;-81
2022/09/15 02:46:17;;;;;;;5.55;1.70;;;19.70;99.90;;;;;;5086705;28;20064;-83
2022/09/15 02:48:42;;;;;;;8.13;1.92;;;19.70;99.90;;;;;;5096303;28;20039;-82
2022/09/15 02:51:09;;;;;;;4.10;1.60;;;19.70;99.90;;;;;;5096658;28;20021;-81
2022/09/15 02:53:35;;;;;;;7.13;1.88;;;19.70;99.90;;;;;;5096181;28;20048;-83
2022/09/15 02:56:05;;;;;;;4.07;1.50;;;19.70;99.90;;;;;;5095544;28;20054;-81
2022/09/15 02:58:32;;;;;;;5.07;1.70;;;19.70;99.90;;;;;;5090694;28;20046;-82
2022/09/15 03:01:02;;;;;;;3.22;1.73;;;19.70;99.90;;;;;;5077681;28;20079;-82
2022/09/15 03:03:29;;;;;;;5.72;1.55;;;19.70;99.90;;;;;;5078754;28;20395;-83
2022/09/15 03:06:15;;;;;;;3.70;1.58;;;19.60;99.90;;;;;;5081803;28;20017;-83
2022/09/15 03:08:55;;;;;;;9.15;1.38;;;19.60;99.90;;;;;;5083650;28;20025;-83
2022/09/15 03:11:24;;;;;;;5.03;1.40;;;19.60;99.90;;;;;;5073508;28;20103;-83
2022/09/15 03:13:58;;;;;;;4.32;1.70;;;19.60;99.90;;;;;;5066072;28;20119;-85
2022/09/15 03:16:25;;;;;;;5.63;1.52;;;19.70;99.90;;;;;;5064189;28;20028;-82
2022/09/15 03:18:53;;;;;;;3.45;1.60;;;19.70;99.90;;;;;;5085232;28;20058;-83
2022/09/15 03:21:19;;;;;;;4.05;1.63;;;19.70;99.90;;;;;;5079692;28;20028;-83
2022/09/15 03:23:44;;;;;;;6.57;1.70;;;19.70;99.90;;;;;;5081126;28;20028;-83
2022/09/15 03:26:11;;;;;;;8.77;2.13;;;19.80;99.90;;;;;;5082129;28;20081;-84
2022/09/15 03:28:37;;;;;;;7.05;1.70;;;19.90;99.90;;;;;;5081006;28;20499;-82
2022/09/15 03:31:05;;;;;;;8.02;1.80;;;19.90;99.90;;;;;;5079674;28;20051;-83
2022/09/15 03:33:30;;;;;;;3.92;1.70;;;19.90;99.90;;;;;;5080972;28;20044;-82
2022/09/15 03:35:57;;;;;;;5.90;1.85;;;19.90;99.90;;;;;;5097526;28;20024;-80
2022/09/15 03:38:23;;;;;;;6.43;1.80;;;19.80;99.90;;;;;;5079055;28;20047;-82
2022/09/15 03:40:57;;;;;;;6.93;1.70;;;19.80;99.90;;;;;;5096914;28;20040;-83
2022/09/15 03:43:22;;;;;;;5.00;1.60;;;19.80;99.90;;;;;;5093765;28;20035;-84
2022/09/15 03:45:48;;;;;;;4.75;2.00;;;19.70;99.90;;;;;;5092773;28;20021;-82
2022/09/15 03:48:14;;;;;;;10.50;1.75;;;19.70;99.90;;;;;;5093140;28;20024;-82
2022/09/15 03:50:40;;;;;;;4.72;1.60;;;19.70;99.90;;;;;;5075462;28;20031;-83
2022/09/15 03:53:05;;;;;;;6.78;1.70;;;19.70;99.90;;;;;;5093653;28;20044;-82
2022/09/15 03:55:32;;;;;;;6.18;1.67;;;19.70;99.90;;;;;;5071523;28;20032;-82
2022/09/15 03:57:59;;;;;;;3.17;1.70;;;19.60;99.90;;;;;;5088170;28;20028;-82
2022/09/15 04:00:24;;;;;;;5.80;1.58;;;19.60;99.90;;;;;;5093724;28;20021;-82
2022/09/15 04:02:50;;;;;;;5.93;1.70;;;19.50;99.90;;;;;;5092856;28;20054;-83
2022/09/15 04:05:16;;;;;;;3.75;1.80;;;19.50;99.90;;;;;;5062954;28;20027;-83
2022/09/15 04:07:42;;;;;;;3.30;1.70;;;19.50;99.90;;;;;;5061941;28;20060;-84
2022/09/15 04:10:09;;;;;;;4.03;1.73;;;19.50;99.90;;;;;;5080532;28;20025;-83
2022/09/15 04:12:35;;;;;;;4.90;1.80;;;19.50;99.90;;;;;;5081608;28;20043;-84
2022/09/15 04:15:02;;;;;;;5.65;2.00;;;19.40;99.90;;;;;;5082784;28;20028;-85
2022/09/15 04:17:29;;;;;;;5.35;1.75;;;19.40;99.90;;;;;;5083253;28;20032;-83
2022/09/15 04:19:54;;;;;;;3.60;1.95;;;19.40;99.90;;;;;;5081269;28;20027;-83
2022/09/15 04:22:20;;;;;;;4.32;1.73;;;19.30;99.90;;;;;;5088270;28;20028;-84
2022/09/15 04:24:47;;;;;;;5.95;2.03;;;19.30;99.90;;;;;;5086699;28;20021;-84
2022/09/15 04:27:14;;;;;;;3.22;2.17;;;19.30;99.90;;;;;;5086790;28;20703;-82
2022/09/15 04:29:40;;;;;;;9.70;3.03;;;19.30;99.90;;;;;;5085846;28;20021;-82
2022/09/15 04:32:07;;;;;;;8.77;2.15;;;19.30;99.90;;;;;;5067641;28;20644;-83
2022/09/15 04:34:33;;;;;;;5.82;1.83;;;19.30;99.90;;;;;;5075519;28;20032;-82
2022/09/15 04:36:59;;;;;;;10.90;2.90;;;19.30;99.90;;;;;;5063146;28;20024;-83
2022/09/15 04:39:24;;;;;;;6.40;2.55;;;19.30;99.90;;;;;;5081787;28;20082;-85
2022/09/15 04:41:50;;;;;;;8.13;2.50;;;19.30;99.90;;;;;;5087105;28;20024;-83
2022/09/15 04:44:16;;;;;;;7.93;2.85;;;19.20;99.90;;;;;;5090814;28;20025;-82
2022/09/15 04:46:42;;;;;;;8.63;2.00;;;19.20;99.90;;;;;;5068283;28;20066;-84
2022/09/15 04:49:08;;;;;;;8.02;2.42;;;19.30;99.90;;;;;;5082088;28;20029;-83
2022/09/15 04:51:34;;;;;;;5.53;2.47;;;19.30;99.90;;;;;;5086584;28;20017;-82
2022/09/15 04:54:00;;;;;;;6.65;2.63;;;19.30;99.90;;;;;;5093140;28;20035;-80
2022/09/15 04:56:26;;;;;;;4.70;2.33;;;19.30;99.90;;;;;;5098797;28;20028;-80
2022/09/15 04:58:57;;;;;;;5.53;2.45;;;19.30;99.90;;;;;;5097473;28;20021;-81
2022/09/15 05:01:26;;;;;;;5.57;2.35;;;19.30;99.90;;;;;;5099110;28;20060;-80
2022/09/15 05:03:52;;;;;;;5.07;2.30;;;19.30;99.90;;;;;;5099232;28;20024;-80
2022/09/15 05:06:22;;;;;;;5.78;2.25;;;19.30;99.90;;;;;;5080949;28;20032;-80
2022/09/15 05:08:49;;;;;;;7.32;2.13;;;19.30;99.90;;;;;;5095677;28;20151;-81
2022/09/15 05:11:15;;;;;;;5.50;2.03;;;19.30;99.90;;;;;;5069156;28;20037;-82
2022/09/15 05:13:41;;;;;;;5.22;2.35;;;19.30;99.90;;;;;;5087989;28;20025;-83
2022/09/15 05:16:17;;;;;;;10.15;2.58;;;19.40;99.90;;;;;;5078685;28;20079;-84
2022/09/15 05:18:44;;;;;;;9.65;2.63;;;19.40;99.90;;;;;;5060906;28;20037;-83
2022/09/15 05:21:12;;;;;;;4.38;2.17;;;19.50;99.90;;;;;;5079073;28;20028;-81
2022/09/15 05:23:38;;;;;;;7.22;2.40;;;19.50;99.90;;;;;;5061063;28;20025;-84
2022/09/15 05:26:07;;;;;;;12.00;2.55;;;19.60;99.90;;;;;;5043401;28;20021;-83
2022/09/15 05:28:35;;;;;;;7.28;2.30;;;19.60;99.90;;;;;;5058390;28;20028;-82
2022/09/15 05:31:01;;;;;;;6.07;2.00;;;19.70;99.90;;;;;;5074907;28;20637;-83
2022/09/15 05:33:27;;;;;;;6.07;1.70;;;19.70;99.90;;;;;;5072966;28;20032;-85
2022/09/15 05:35:56;;;;;;;6.47;2.08;;;19.80;99.90;;;;;;5070261;28;20110;-85
2022/09/15 05:38:23;;;;;;;7.53;2.17;;;19.90;99.90;;;;;;5068957;28;20051;-84
2022/09/15 05:40:49;;;;;;;7.32;1.80;;;20.00;99.90;;;;;;5057193;28;20071;-86
2022/09/15 05:43:17;;;;;;;6.13;1.88;;;20.20;99.90;;;;;;5060449;28;20028;-86
2022/09/15 05:45:43;;;;;;;7.78;1.95;;;20.30;99.90;;;;;;5071237;28;20016;-85
2022/09/15 05:48:10;;;;;;;3.92;1.45;;;20.30;99.90;;;;;;5069013;28;20029;-86
2022/09/15 05:50:37;;;;;;;7.57;1.80;;;20.30;99.90;;;;;;5041458;28;20044;-85
2022/09/15 05:53:04;;;;;;;5.38;2.10;;;20.40;99.90;;;;;;5058165;28;20093;-85
2022/09/15 05:55:30;;;;;;;10.32;2.17;;;20.40;99.90;;;;;;5053863;28;20025;-82
2022/09/15 05:57:56;;;;;;;9.07;2.25;;;20.40;99.90;;;;;;5070791;28;20024;-84
2022/09/15 06:00:23;;;;;;;14.75;2.30;;;20.40;99.90;;;;;;5071809;28;20021;-85
2022/09/15 06:02:49;;;;;;;4.25;1.60;;;20.50;99.90;;;;;;5069513;28;20397;-85
2022/09/15 06:05:15;;;;;;;5.38;2.05;;;20.60;99.90;;;;;;5053563;28;20021;-84
2022/09/15 06:07:40;;;;;;;5.00;1.65;;;20.50;99.90;;;;;;5051570;28;20407;-85
2022/09/15 06:10:08;;;;;;;7.43;2.42;;;20.50;99.90;;;;;;5069226;28;20055;-83
2022/09/15 06:12:33;;;;;;;4.30;1.90;;;20.60;99.90;;;;;;5072292;28;20021;-85
2022/09/15 06:14:59;;;;;;;5.28;2.15;;;20.60;99.90;;;;;;5073948;28;20043;-84
2022/09/15 06:17:26;;;;;;;3.83;1.90;;;20.70;99.90;;;;;;5076992;28;20032;-84
2022/09/15 06:19:51;;;;;;;7.93;2.38;;;20.80;99.90;;;;;;5077917;28;20468;-85
2022/09/15 06:22:17;;;;;;;8.40;2.63;;;20.80;99.90;;;;;;5074950;28;20032;-85
2022/09/15 06:24:43;;;;;;;6.47;2.05;;;20.90;99.90;;;;;;5056784;28;20052;-85
2022/09/15 06:27:09;;;;;;;5.07;1.90;;;20.90;99.90;;;;;;5076548;28;20025;-85
2022/09/15 06:29:35;;;;;;;5.43;1.40;;;20.90;99.90;;;;;;5056841;28;20020;-85
2022/09/15 06:32:01;;;;;;;4.28;1.80;;;20.90;99.90;;;;;;5078469;28;20037;-84
2022/09/15 06:34:28;;;;;;;6.80;1.80;;;21.00;99.90;;;;;;5079665;28;20323;-83
2022/09/15 06:36:54;;;;;;;7.80;2.35;;;21.10;99.90;;;;;;5057992;28;20032;-85
2022/09/15 06:39:20;;;;;;;10.43;1.98;;;21.20;99.90;;;;;;5039417;28;20017;-85
2022/09/15 06:41:46;;;;;;;2.78;1.25;;;21.40;99.90;;;;;;5058607;28;20035;-84
2022/09/15 06:44:17;;;;;;;7.18;1.73;;;21.50;99.90;;;;;;5061598;28;20016;-83
2022/09/15 06:46:44;;;;;;;5.53;1.75;;;21.50;99.90;;;;;;5080036;28;20021;-84
2022/09/15 06:49:10;;;;;;;6.90;1.90;;;21.50;99.90;;;;;;5057112;28;20085;-84
2022/09/15 06:51:36;;;;;;;5.47;1.73;;;21.40;99.90;;;;;;5054201;28;20089;-85
2022/09/15 06:54:02;;;;;;;7.95;1.70;;;21.40;99.90;;;;;;5077849;28;20039;-84
2022/09/15 06:56:28;;;;;;;4.82;1.40;;;21.30;99.90;;;;;;5069451;28;20029;-83
2022/09/15 06:58:57;;;;;;;4.63;1.70;;;21.40;99.90;;;;;;5070899;28;20161;-84
2022/09/15 07:01:27;;;;;;;3.50;1.50;;;21.40;99.90;;;;;;5057353;28;20143;-84
2022/09/15 07:03:54;;;;;;;4.15;1.80;;;21.40;99.90;;;;;;5050289;28;20659;-84
2022/09/15 07:06:20;;;;;;;4.63;1.70;;;21.50;99.90;;;;;;5054642;28;20027;-84
2022/09/15 07:08:46;;;;;;;2.78;1.58;;;21.50;99.90;;;;;;5069184;28;20025;-84
2022/09/15 07:11:13;;;;;;;5.30;1.52;;;21.50;99.90;;;;;;5070733;28;20017;-84
2022/09/15 07:13:38;;;;;;;8.27;2.00;;;21.50;99.90;;;;;;5051622;28;20028;-83
2022/09/15 07:16:07;;;;;;;6.78;1.40;;;21.70;99.90;;;;;;5080131;28;20054;-83
2022/09/15 07:18:34;;;;;;;5.28;2.15;;;21.70;99.90;;;;;;5079342;28;20465;-85
2022/09/15 07:21:03;;;;;;;4.80;1.50;;;21.80;99.90;;;;;;5063831;28;20056;-84
2022/09/15 07:23:29;;;;;;;5.07;1.70;;;21.80;99.90;;;;;;5089355;28;20093;-85
2022/09/15 07:26:11;;;;;;;4.75;1.73;;;22.00;99.90;;;;;;5096347;28;20043;-85
2022/09/15 07:28:38;;;;;;;5.65;1.60;;;22.00;99.90;;;;;;5100554;28;20080;-84
2022/09/15 07:31:05;;;;;;;4.50;2.42;;;22.00;99.90;;;;;;5070965;28;20471;-85
2022/09/15 07:33:32;;;;;;;5.65;1.70;;;22.10;99.90;;;;;;5064394;28;20036;-84
2022/09/15 07:36:01;;;;;;;5.63;1.77;;;22.00;99.90;;;;;;5088265;28;20041;-86
2022/09/15 07:38:27;;;;;;;6.53;1.70;;;22.10;99.90;;;;;;5095180;28;20025;-85
2022/09/15 07:40:52;;;;;;;3.03;1.75;;;22.00;99.90;;;;;;5096180;28;20079;-87
2022/09/15 07:43:18;;;;;;;5.82;1.90;;;22.10;99.90;;;;;;5077857;28;20036;-87
2022/09/15 07:45:44;;;;;;;3.85;1.52;;;22.10;99.90;;;;;;5078787;28;20028;-87
2022/09/15 07:48:10;;;;;;;4.10;1.80;;;22.20;99.90;;;;;;5060172;28;20037;-86
2022/09/15 07:50:36;;;;;;;7.45;2.00;;;22.20;99.90;;;;;;5075329;28;20044;-86
2022/09/15 07:53:02;;;;;;;3.72;1.40;;;22.30;99.90;;;;;;5078688;28;20111;-86
2022/09/15 07:55:29;;;;;;;4.95;1.80;;;22.20;99.90;;;;;;5072876;28;20062;-85
2022/09/15 07:58:02;;;;;;;5.97;1.85;;;22.30;99.90;;;;;;5073531;28;20020;-86
2022/09/15 08:00:28;;;;;;;5.18;1.98;;;22.30;99.90;;;;;;5054368;28;20115;-86
2022/09/15 08:02:55;;;;;;;7.60;2.30;;;22.30;99.90;;;;;;5072813;28;20021;-86
2022/09/15 08:05:24;;;;;;;6.40;1.80;;;22.20;99.90;;;;;;5081292;28;20016;-86
2022/09/15 08:07:50;;;;;;;9.98;1.92;;;22.20;99.90;;;;;;5060869;28;20070;-85
2022/09/15 08:10:16;;;;;;;4.40;1.45;;;22.20;99.90;;;;;;5072061;28;20025;-87
2022/09/15 08:12:42;;;;;;;2.85;1.58;;;22.30;99.90;;;;;;5074963;28;20040;-85
2022/09/15 08:15:08;;;;;;;3.85;1.63;;;22.30;99.90;;;;;;5074189;28;20043;-87
2022/09/15 08:17:34;;;;;;;3.90;1.80;;;22.30;99.90;;;;;;5073298;28;20025;-86
2022/09/15 08:20:00;;;;;;;4.13;1.55;;;22.30;99.90;;;;;;5075046;28;20035;-86
2022/09/15 08:22:26;;;;;;;4.88;1.83;;;22.30;99.90;;;;;;5076575;28;20040;-86
2022/09/15 08:24:51;;;;;;;6.13;1.60;;;22.30;99.90;;;;;;5065772;28;20013;-85
2022/09/15 08:27:17;;;;;;;6.60;1.63;;;22.30;99.90;;;;;;5084925;28;20029;-85
2022/09/15 08:29:43;;;;;;;5.47;1.60;;;22.20;99.90;;;;;;5075577;28;20539;-85
2022/09/15 08:32:09;;;;;;;2.70;1.63;;;22.10;99.90;;;;;;5075397;28;20033;-84
2022/09/15 08:34:34;;;;;;;5.50;1.73;;;22.00;99.90;;;;;;5076209;28;20029;-86
2022/09/15 08:37:00;;;;;;;8.55;1.83;;;21.90;99.90;;;;;;5075543;28;20052;-85
2022/09/15 08:39:26;;;;;;;2.90;1.70;;;21.90;99.90;;;;;;5038420;28;20025;-87
2022/09/15 08:41:53;;;;;;;9.88;1.88;;;21.90;99.90;;;;;;5059486;28;20044;-88
2022/09/15 08:44:39;;;;;;;5.32;1.92;;;22.00;99.90;;;;;;5072912;28;20024;-87
2022/09/15 08:47:14;;;;;;;4.75;1.55;;;22.10;99.90;;;;;;5081761;28;20456;-87
2022/09/15 08:49:58;;;;;;;3.55;1.30;;;22.20;99.90;;;;;;5080588;28;20052;-85
2022/09/15 08:52:30;;;;;;;5.05;1.65;;;22.20;99.90;;;;;;5072788;28;20028;-87
2022/09/15 08:55:10;;;;;;;5.43;1.60;;;22.20;99.90;;;;;;5051594;28;20028;-85
2022/09/15 08:57:36;;;;;;;3.78;1.58;;;22.40;99.90;;;;;;5052613;28;20029;-86
2022/09/15 09:00:03;;;;;;;5.70;1.70;;;22.40;99.90;;;;;;5070957;28;20071;-87
2022/09/15 09:03:02;;;;;;;8.13;1.85;;;22.50;99.90;;;;;;5044478;28;20036;-85
2022/09/15 09:06:00;;;;;;;4.20;1.77;;;22.50;99.90;;;;;;5062610;28;20033;-84
2022/09/15 09:08:48;;;;;;;4.57;1.67;;;22.60;99.90;;;;;;5056622;28;20032;-85
2022/09/15 09:11:37;;;;;;;6.63;1.55;;;22.60;99.90;;;;;;5084776;28;20029;-84
2022/09/15 09:14:11;;;;;;;6.60;1.60;;;22.60;99.90;;;;;;5084757;28;20120;-84
2022/09/15 09:16:57;;;;;;;4.13;1.88;;;22.70;99.90;;;;;;5083402;28;20055;-86
2022/09/15 09:19:38;;;;;;;7.53;2.00;;;22.60;99.90;;;;;;5060174;28;20041;-83
2022/09/15 09:22:15;;;;;;;3.80;1.40;;;22.50;99.90;;;;;;5063140;28;20033;-85
2022/09/15 09:24:44;;;;;;;5.32;1.65;;;22.40;99.90;;;;;;5061729;28;20032;-86
2022/09/15 09:27:23;;;;;;;3.80;1.73;;;22.40;99.90;;;;;;5049197;28;20045;-86
2022/09/15 09:30:06;;;;;;;3.83;1.45;;;22.40;99.90;;;;;;5056073;28;20028;-86
2022/09/15 09:32:59;;;;;;;6.65;1.95;;;22.40;99.90;;;;;;5061141;28;20531;-86
2022/09/15 09:35:44;;;;;;;8.70;1.98;;;22.40;99.90;;;;;;5071124;28;20538;-86
2022/09/15 09:38:15;;;;;;;5.55;1.55;;;22.40;99.90;;;;;;5072168;28;20082;-83
2022/09/15 09:40:41;;;;;;;5.32;1.63;;;22.20;99.90;;;;;;5062634;28;20025;-85
2022/09/15 09:43:08;;;;;;;2.72;1.23;;;22.00;99.90;;;;;;5047843;28;20081;-86
2022/09/15 09:45:34;;;;;;;3.40;1.30;;;22.00;99.90;;;;;;5028676;28;20037;-84
2022/09/15 09:48:05;;;;;;;4.60;1.20;;;22.00;99.90;;;;;;5044469;28;20027;-84
2022/09/15 09:50:31;;;;;;;3.65;1.48;;;21.90;99.90;;;;;;5062048;28;20033;-85
2022/09/15 09:52:57;;;;;;;3.13;1.33;;;21.90;99.90;;;;;;5046700;28;20021;-85
2022/09/15 09:55:26;;;;;;;2.90;1.25;;;21.80;99.90;;;;;;5069756;28;20110;-85
2022/09/15 09:57:53;;;;;;;2.05;1.33;;;21.70;99.90;;;;;;5088049;28;20100;-86
2022/09/15 10:00:34;;;;;;;7.60;1.70;;;21.60;99.90;;;;;;5074706;28;20016;-85
2022/09/15 10:03:15;;;;;;;6.30;1.58;;;21.60;99.90;;;;;;5052225;28;20028;-86
2022/09/15 10:05:42;;;;;;;3.22;1.35;;;21.60;99.90;;;;;;5068520;28;20032;-85
2022/09/15 10:08:19;;;;;;;2.90;1.55;;;21.50;99.90;;;;;;5067113;28;20043;-84
2022/09/15 10:10:59;;;;;;;1.40;0.98;;;21.50;99.90;;;;;;5067950;28;20491;-85
2022/09/15 10:13:25;;;;;;;3.13;1.30;;;21.40;99.90;;;;;;5068479;28;20060;-85
2022/09/15 10:15:58;;;;;;;7.45;1.70;;;21.30;99.90;;;;;;5048203;28;20017;-85
2022/09/15 10:18:26;;;;;;;4.20;1.70;;;21.20;99.90;;;;;;5068859;28;20024;-86
2022/09/15 10:20:52;;;;;;;3.63;1.35;;;21.10;99.90;;;;;;5068792;28;20099;-86
2022/09/15 10:23:20;;;;;;;4.78;1.63;;;21.10;99.90;;;;;;5069684;28;20020;-85
2022/09/15 10:25:47;;;;;;;6.80;1.45;;;21.10;99.90;;;;;;5048042;28;20109;-85
2022/09/15 10:28:17;;;;;;;3.33;1.58;;;21.10;99.90;;;;;;5064733;28;20084;-84
2022/09/15 10:31:06;;;;;;;3.20;1.55;;;21.20;99.90;;;;;;5060092;28;20124;-85
2022/09/15 10:33:36;;;;;;;3.45;1.40;;;21.20;99.90;;;;;;5062601;28;20033;-83
2022/09/15 10:36:10;;;;;;;2.47;1.30;;;21.30;99.90;;;;;;5040903;28;20021;-86
2022/09/15 10:38:43;;;;;;;3.75;1.55;;;21.30;99.90;;;;;;5063446;28;20009;-83
2022/09/15 10:41:12;;;;;;;3.97;1.63;;;21.30;99.90;;;;;;5070460;28;20033;-84
2022/09/15 10:44:10;;;;;;;2.60;1.50;;;21.30;99.90;;;;;;5062012;28;20515;-86
2022/09/15 10:46:51;;;;;;;3.25;1.67;;;21.30;99.90;;;;;;5030018;28;20041;-84
2022/09/15 10:50:05;;;;;;;4.28;1.40;;;21.40;99.90;;;;;;5060435;28;20056;-85
2022/09/15 10:52:42;;;;;;;7.78;2.00;;;21.40;99.90;;;;;;5057207;28;20049;-84
2022/09/15 10:55:33;;;;;;;3.00;1.45;;;21.30;99.90;;;;;;5058432;28;20029;-84
2022/09/15 10:58:20;;;;;;;2.13;1.20;;;21.10;99.90;;;;;;5058400;28;20058;-84
2022/09/15 11:00:55;;;;;;;4.15;1.58;;;21.00;99.90;;;;;;5057838;28;20040;-84
2022/09/15 11:03:23;;;;;;;6.03;1.52;;;21.00;99.90;;;;;;5059893;28;20028;-84
2022/09/15 11:06:07;;;;;;;4.78;1.77;;;21.00;99.90;;;;;;5057848;28;20022;-85
2022/09/15 11:08:49;;;;;;;4.60;1.63;;;21.00;99.90;;;;;;5059650;28;20032;-85
2022/09/15 11:11:41;;;;;;;3.67;1.17;;;21.00;99.90;;;;;;5044787;28;20043;-85
2022/09/15 11:14:21;;;;;;;2.80;1.45;;;20.90;99.90;;;;;;5044716;28;20037;-84
2022/09/15 11:17:23;;;;;;;5.15;1.42;;;20.80;99.90;;;;;;5074343;28;20017;-85
2022/09/15 11:20:14;;;;;;;3.05;1.58;;;20.80;99.90;;;;;;5075986;28;20055;-83
2022/09/15 11:22:53;;;;;;;3.35;1.00;;;20.70;99.90;;;;;;5067739;28;20071;-86
2022/09/15 11:25:27;;;;;;;4.82;1.52;;;20.80;99.90;;;;;;5067327;28;20045;-85
2022/09/15 11:28:16;;;;;;;4.15;1.25;;;20.80;99.90;;;;;;5040127;28;20036;-83
2022/09/15 11:31:02;;;;;;;3.17;1.30;;;20.80;99.90;;;;;;5116176;22;20020;-85
2022/09/15 11:33:39;;;;;;;4.22;1.20;;;20.80;99.90;;;;;;5083124;28;20050;-85
2022/09/15 11:36:17;;;;;;;4.80;1.27;;;21.00;99.90;;;;;;5082916;28;20028;-85
2022/09/15 11:38:49;;;;;;;3.28;1.20;;;21.10;99.90;;;;;;5099594;28;20071;-86
2022/09/15 11:41:24;;;;;;;5.20;1.25;;;21.10;99.90;;;;;;5100137;28;20029;-85
2022/09/15 11:44:15;;;;;;;4.63;1.10;;;21.10;99.90;;;;;;5083310;28;20024;-84
2022/09/15 11:47:12;;;;;;;4.68;1.05;;;21.10;99.90;;;;;;5089235;28;20033;-85
2022/09/15 11:49:52;;;;;;;3.10;1.10;;;21.10;99.90;;;;;;5099927;28;20060;-85
2022/09/15 11:52:53;;;;;;;1.88;0.85;;;21.10;99.90;;;;;;5082614;28;20028;-86
2022/09/15 11:55:21;;;;;;;2.20;1.30;;;21.00;99.90;;;;;;5096826;28;20081;-86
2022/09/15 11:57:55;;;;;;;2.60;0.90;;;21.00;99.90;;;;;;5091775;28;20020;-86
2022/09/15 12:00:21;;;;;;;1.55;0.90;;;21.00;99.90;;;;;;5075485;28;20036;-86
2022/09/15 12:03:07;;;;;;;4.72;1.02;;;20.90;99.90;;;;;;5093237;28;20032;-86
2022/09/15 12:05:59;;;;;;;2.38;1.17;;;20.80;99.90;;;;;;5093630;28;20024;-88
2022/09/15 12:08:33;;;;;;;1.40;0.90;;;20.70;99.90;;;;;;5072191;28;20029;-86
2022/09/15 12:11:05;;;;;;;4.33;1.23;;;20.40;99.90;;;;;;5089965;28;20048;-86
2022/09/15 12:13:32;;;;;;;3.97;1.10;;;20.30;99.90;;;;;;5089711;28;20309;-87
2022/09/15 12:16:00;;;;;;;2.45;1.27;;;20.30;99.90;;;;;;5090398;28;20021;-86
2022/09/15 12:18:37;;;;;;;2.65;1.20;;;20.20;99.90;;;;;;5072399;28;20036;-84
2022/09/15 12:21:29;;;;;;;4.78;1.58;;;20.20;99.90;;;;;;5093341;28;20032;-86
2022/09/15 12:24:17;;;;;;;5.65;1.50;;;20.10;99.90;;;;;;5074227;28;20480;-84
2022/09/15 12:26:45;;;;;;;4.45;1.52;;;20.20;99.90;;;;;;5076646;28;20500;-85
2022/09/15 12:29:26;;;;;;;2.97;1.25;;;20.20;99.90;;;;;;5077835;28;20041;-85
2022/09/15 12:32:27;;;;;;;2.72;1.08;;;20.10;99.90;;;;;;5076607;28;20096;-86
2022/09/15 12:35:03;;;;;;;3.97;1.10;;;20.00;99.90;;;;;;5076953;28;20021;-85
2022/09/15 12:37:35;;;;;;;4.47;1.40;;;20.10;99.90;;;;;;5076464;28;20085;-84
2022/09/15 12:40:04;;;;;;;4.18;1.30;;;20.00;99.90;;;;;;5076487;28;20081;-84
2022/09/15 12:42:31;;;;;;;2.72;1.60;;;20.00;99.90;;;;;;5076682;28;20500;-83
2022/09/15 12:45:20;;;;;;;2.38;1.23;;;19.90;99.90;;;;;;5075881;28;20033;-84
2022/09/15 12:48:05;;;;;;;2.53;1.33;;;19.90;99.90;;;;;;5078938;28;20036;-83
2022/09/15 12:50:42;;;;;;;3.38;1.38;;;19.90;99.90;;;;;;5081982;28;20508;-85
2022/09/15 12:53:20;;;;;;;2.03;1.20;;;19.90;99.90;;;;;;5089975;28;20100;-87
2022/09/15 12:55:54;;;;;;;4.00;1.45;;;20.00;99.90;;;;;;5090544;28;20016;-86
2022/09/15 12:58:34;;;;;;;2.97;1.45;;;20.10;99.90;;;;;;5079521;28;20032;-86
2022/09/15 13:01:21;;;;;;;5.45;1.60;;;20.20;99.90;;;;;;5078883;28;20361;-86
2022/09/15 13:03:52;;;;;;;3.50;1.63;;;20.20;99.90;;;;;;5059685;28;20048;-86
2022/09/15 13:06:22;;;;;;;5.65;1.67;;;20.50;99.90;;;;;;5082005;28;20017;-86
2022/09/15 13:09:01;;;;;;;4.35;1.52;;;20.80;99.90;;;;;;5076005;28;20105;-88
2022/09/15 13:11:35;;;;;;;2.33;1.65;;;21.00;99.90;;;;;;5078361;28;20040;-86